createdAt,value
2022-09-23T21:59:32.812Z,4.40
2022-09-23T22:00:32.806Z,4.80
2022-09-23T22:01:32.805Z,5.60
2022-09-23T22:02:32.726Z,5.40
2022-09-23T22:03:32.804Z,5.30
2022-09-23T22:04:32.829Z,5.10
2022-09-23T22:05:32.730Z,4.30
2022-09-23T22:06:32.675Z,4.50
2022-09-23T22:07:32.667Z,5.20
2022-09-23T22:08:32.655Z,4.70
2022-09-23T22:09:32.640Z,4.60
2022-09-23T22:10:32.622Z,4.70
2022-09-23T22:11:32.636Z,5.70
2022-09-23T22:12:32.613Z,5.10
2022-09-23T22:13:32.578Z,5.10
2022-09-23T22:14:32.576Z,4.60
2022-09-23T22:15:32.567Z,5.10
2022-09-23T22:16:32.613Z,4.80
2022-09-23T22:17:32.550Z,4.50
2022-09-23T22:18:32.526Z,4.80
2022-09-23T22:19:32.487Z,4.80
2022-09-23T22:20:32.494Z,5.10
2022-09-23T22:21:32.485Z,4.50
2022-09-23T22:22:32.452Z,4.70
2022-09-23T22:23:32.433Z,4.70
2022-09-23T22:24:32.418Z,5.20
2022-09-23T22:25:32.422Z,5.00
2022-09-23T22:26:32.427Z,5.10
2022-09-23T22:27:32.380Z,5.70
2022-09-23T22:28:32.367Z,4.80
2022-09-23T22:29:32.364Z,4.80
2022-09-23T22:30:32.348Z,4.70
2022-09-23T22:31:32.506Z,4.90
2022-09-23T22:32:32.337Z,5.40
2022-09-23T22:33:32.294Z,4.70
2022-09-23T22:34:48.969Z,5.00
2022-09-23T22:35:33.274Z,5.10
2022-09-23T22:36:32.239Z,4.80
2022-09-23T22:37:32.273Z,4.70
2022-09-23T22:38:32.235Z,4.90
2022-09-23T22:39:32.214Z,4.60
2022-09-23T22:40:32.234Z,4.90
2022-09-23T22:41:32.173Z,5.10
2022-09-23T22:42:32.158Z,5.20
2022-09-23T22:43:32.163Z,4.80
2022-09-23T22:44:32.125Z,4.90
2022-09-23T22:45:32.128Z,5.10
2022-09-23T22:46:32.172Z,4.70
2022-09-23T22:47:32.097Z,5.10
2022-09-23T22:48:32.068Z,5.20
2022-09-23T22:49:32.076Z,4.20
2022-09-23T22:50:32.079Z,4.50
2022-09-23T22:51:32.026Z,4.60
2022-09-23T22:52:32.013Z,4.70
2022-09-23T22:53:31.998Z,4.60
2022-09-23T22:54:34.159Z,4.70
2022-09-23T22:55:31.980Z,5.20
2022-09-23T22:56:31.987Z,4.60
2022-09-23T22:57:31.968Z,5.20
2022-09-23T22:58:32.942Z,4.80
2022-09-23T22:59:31.916Z,5.40
2022-09-23T23:00:31.905Z,5.70
2022-09-23T23:01:31.958Z,5.10
2022-09-23T23:02:31.905Z,4.60
2022-09-23T23:03:31.881Z,4.90
2022-09-23T23:04:31.854Z,4.70
2022-09-23T23:05:31.855Z,5.80
2022-09-23T23:06:31.826Z,4.40
2022-09-23T23:07:31.833Z,4.30
2022-09-23T23:08:31.821Z,4.80
2022-09-23T23:09:31.779Z,4.70
2022-09-23T23:10:31.777Z,5.20
2022-09-23T23:11:31.765Z,5.60
2022-09-23T23:12:31.747Z,6.40
2022-09-23T23:13:31.761Z,5.80
2022-09-23T23:14:31.735Z,6.60
2022-09-23T23:15:31.701Z,5.80
2022-09-23T23:16:31.723Z,5.70
2022-09-23T23:17:31.677Z,4.80
2022-09-23T23:18:31.681Z,5.30
2022-09-23T23:19:31.676Z,5.50
2022-09-23T23:20:31.641Z,5.00
2022-09-23T23:21:31.619Z,5.20
2022-09-23T23:22:31.598Z,5.70
2022-09-23T23:23:31.592Z,4.60
2022-09-23T23:24:31.582Z,5.30
2022-09-23T23:25:31.590Z,4.60
2022-09-23T23:26:31.551Z,5.50
2022-09-23T23:27:31.538Z,5.20
2022-09-23T23:28:31.527Z,5.80
2022-09-23T23:29:31.518Z,5.60
2022-09-23T23:30:31.527Z,6.30
2022-09-23T23:31:31.597Z,7.10
2022-09-23T23:32:31.472Z,6.30
2022-09-23T23:33:31.483Z,6.50
2022-09-23T23:34:31.433Z,5.70
2022-09-23T23:35:31.428Z,5.60
2022-09-23T23:36:31.393Z,5.30
2022-09-23T23:37:31.403Z,5.90
2022-09-23T23:38:31.383Z,5.60
2022-09-23T23:39:31.366Z,5.30
2022-09-23T23:40:31.395Z,6.50
2022-09-23T23:41:31.356Z,6.80
2022-09-23T23:42:31.325Z,7.00
2022-09-23T23:43:31.306Z,7.20
2022-09-23T23:44:31.319Z,8.00
2022-09-23T23:45:31.287Z,7.60
2022-09-23T23:46:31.293Z,8.40
2022-09-23T23:47:31.265Z,9.60
2022-09-23T23:48:31.250Z,8.20
2022-09-23T23:49:31.233Z,9.00
2022-09-23T23:50:31.234Z,8.60
2022-09-23T23:51:31.221Z,8.80
2022-09-23T23:52:31.189Z,8.90
2022-09-23T23:53:31.197Z,8.50
2022-09-23T23:54:31.152Z,8.90
2022-09-23T23:55:31.147Z,9.50
2022-09-23T23:56:31.133Z,10.20
2022-09-23T23:57:31.133Z,9.10
2022-09-23T23:58:31.109Z,10.20
2022-09-23T23:59:31.133Z,9.20
